Twentynine Palms (Self) Airport Twentynine Palms US
ICAO: KNXP
IATA: NXP
Category: Medium
Scheduled Services: No

Elevation: 2051 ft
TransAlt. 18000 ft.

Airport Communications:
ATIS:38.635
GND:41.7
PMSV METRO:30.83
TWR:135.525

KNXP Zoom In..

If you have problems with the map follow the link
https://www.worldairports.se/pages/airport.php?
ICAO=KNXP

Runways:

(A) RW 10 length 8015 ft width 150 ft
---- / hdg 98

(B) RW 28 length 8015 ft width 150 ft
---- / hdg 278

Location; KNXP
Day. 21 / Time. 19.56 Zulu
* Altimeter: 30.14
* Temperature: 16° c. 60.8°f.
* Wind from: 350° Speed 03 kn.
Dewpoint: 02° c.
Visibility: 7 Statute Miles.
Clouds: Few 8000 ft.
Clouds: Scattered 22000 ft.

KNXP 211956Z 35003KT 7SM FEW080 SCT220 16/02 A3014 RMK AO2 SLP187 T01610022


Wind From 350°
Speed 03 kn.

 
 
jpsmedia worldairports.se 2020   terms of use